sensor_id;sensor_type;location;lat;lon;timestamp;P1;durP1;ratioP1;P2;durP2;ratioP2
12774;SDS011;6451;42.630;23.382;2023-05-03T00:00:46;3.00;;;2.00;;
12774;SDS011;6451;42.630;23.382;2023-05-03T00:03:13;5.13;;;2.10;;
12774;SDS011;6451;42.630;23.382;2023-05-03T00:05:41;4.70;;;2.10;;
12774;SDS011;6451;42.630;23.382;2023-05-03T00:08:08;2.90;;;2.30;;
12774;SDS011;6451;42.630;23.382;2023-05-03T00:10:35;2.53;;;2.10;;
12774;SDS011;6451;42.630;23.382;2023-05-03T00:13:02;3.97;;;2.10;;
12774;SDS011;6451;42.630;23.382;2023-05-03T00:15:29;2.53;;;2.07;;
12774;SDS011;6451;42.630;23.382;2023-05-03T00:17:58;3.43;;;2.23;;
12774;SDS011;6451;42.630;23.382;2023-05-03T00:20:25;2.33;;;2.00;;
12774;SDS011;6451;42.630;23.382;2023-05-03T00:22:53;3.70;;;2.20;;
12774;SDS011;6451;42.630;23.382;2023-05-03T00:25:19;2.83;;;2.30;;
12774;SDS011;6451;42.630;23.382;2023-05-03T00:27:46;5.00;;;2.10;;
12774;SDS011;6451;42.630;23.382;2023-05-03T00:30:13;3.70;;;2.30;;
12774;SDS011;6451;42.630;23.382;2023-05-03T00:32:42;3.53;;;2.20;;
12774;SDS011;6451;42.630;23.382;2023-05-03T00:35:11;5.07;;;2.43;;
12774;SDS011;6451;42.630;23.382;2023-05-03T00:37:38;3.63;;;2.03;;
12774;SDS011;6451;42.630;23.382;2023-05-03T00:40:05;5.67;;;2.40;;
12774;SDS011;6451;42.630;23.382;2023-05-03T00:42:34;5.40;;;2.10;;
12774;SDS011;6451;42.630;23.382;2023-05-03T00:45:02;4.40;;;2.20;;
12774;SDS011;6451;42.630;23.382;2023-05-03T00:47:30;3.87;;;2.03;;
12774;SDS011;6451;42.630;23.382;2023-05-03T00:49:58;2.70;;;2.40;;
12774;SDS011;6451;42.630;23.382;2023-05-03T00:52:27;3.63;;;2.30;;
12774;SDS011;6451;42.630;23.382;2023-05-03T00:54:55;5.00;;;2.20;;
12774;SDS011;6451;42.630;23.382;2023-05-03T00:57:22;2.87;;;2.37;;
12774;SDS011;6451;42.630;23.382;2023-05-03T00:59:51;3.87;;;2.30;;
12774;SDS011;6451;42.630;23.382;2023-05-03T01:02:18;6.33;;;2.30;;
12774;SDS011;6451;42.630;23.382;2023-05-03T01:04:45;4.23;;;2.53;;
12774;SDS011;6451;42.630;23.382;2023-05-03T01:07:19;4.13;;;2.17;;
12774;SDS011;6451;42.630;23.382;2023-05-03T01:09:57;3.90;;;2.50;;
12774;SDS011;6451;42.630;23.382;2023-05-03T01:12:33;3.63;;;2.30;;
12774;SDS011;6451;42.630;23.382;2023-05-03T01:15:11;3.10;;;2.37;;
12774;SDS011;6451;42.630;23.382;2023-05-03T01:17:44;5.07;;;2.30;;
12774;SDS011;6451;42.630;23.382;2023-05-03T01:20:16;3.03;;;2.30;;
12774;SDS011;6451;42.630;23.382;2023-05-03T01:22:49;4.53;;;2.60;;
12774;SDS011;6451;42.630;23.382;2023-05-03T01:25:26;6.47;;;2.67;;
12774;SDS011;6451;42.630;23.382;2023-05-03T01:27:54;3.40;;;2.27;;
12774;SDS011;6451;42.630;23.382;2023-05-03T01:30:22;3.83;;;2.00;;
12774;SDS011;6451;42.630;23.382;2023-05-03T01:32:55;4.13;;;2.33;;
12774;SDS011;6451;42.630;23.382;2023-05-03T01:35:34;3.33;;;2.47;;
12774;SDS011;6451;42.630;23.382;2023-05-03T01:38:04;3.50;;;2.10;;
12774;SDS011;6451;42.630;23.382;2023-05-03T01:40:34;3.13;;;2.20;;
12774;SDS011;6451;42.630;23.382;2023-05-03T01:43:06;5.27;;;2.23;;
12774;SDS011;6451;42.630;23.382;2023-05-03T01:45:35;3.80;;;2.20;;
12774;SDS011;6451;42.630;23.382;2023-05-03T01:48:03;4.77;;;2.33;;
12774;SDS011;6451;42.630;23.382;2023-05-03T01:50:35;3.23;;;2.40;;
12774;SDS011;6451;42.630;23.382;2023-05-03T01:53:04;4.03;;;2.27;;
12774;SDS011;6451;42.630;23.382;2023-05-03T01:55:30;3.10;;;2.37;;
12774;SDS011;6451;42.630;23.382;2023-05-03T01:57:59;3.07;;;2.33;;
12774;SDS011;6451;42.630;23.382;2023-05-03T02:00:26;3.67;;;2.20;;
12774;SDS011;6451;42.630;23.382;2023-05-03T02:02:53;5.00;;;2.47;;
12774;SDS011;6451;42.630;23.382;2023-05-03T02:05:21;3.43;;;2.30;;
12774;SDS011;6451;42.630;23.382;2023-05-03T02:07:48;3.40;;;2.40;;
12774;SDS011;6451;42.630;23.382;2023-05-03T02:10:15;4.00;;;2.10;;
12774;SDS011;6451;42.630;23.382;2023-05-03T02:12:43;4.07;;;2.40;;
12774;SDS011;6451;42.630;23.382;2023-05-03T02:15:10;4.47;;;2.50;;
12774;SDS011;6451;42.630;23.382;2023-05-03T02:17:39;3.53;;;2.30;;
12774;SDS011;6451;42.630;23.382;2023-05-03T02:20:08;3.10;;;2.40;;
12774;SDS011;6451;42.630;23.382;2023-05-03T02:22:35;6.60;;;2.40;;
12774;SDS011;6451;42.630;23.382;2023-05-03T02:25:02;2.83;;;2.20;;
12774;SDS011;6451;42.630;23.382;2023-05-03T02:27:31;3.23;;;2.50;;
12774;SDS011;6451;42.630;23.382;2023-05-03T02:30:00;4.90;;;2.20;;
12774;SDS011;6451;42.630;23.382;2023-05-03T02:32:27;2.80;;;2.50;;
12774;SDS011;6451;42.630;23.382;2023-05-03T02:34:54;3.13;;;2.40;;
12774;SDS011;6451;42.630;23.382;2023-05-03T02:37:21;4.17;;;2.30;;
12774;SDS011;6451;42.630;23.382;2023-05-03T02:39:48;3.03;;;2.23;;
12774;SDS011;6451;42.630;23.382;2023-05-03T02:42:15;3.03;;;2.30;;
12774;SDS011;6451;42.630;23.382;2023-05-03T02:44:42;4.00;;;2.70;;
12774;SDS011;6451;42.630;23.382;2023-05-03T02:47:11;4.67;;;2.27;;
12774;SDS011;6451;42.630;23.382;2023-05-03T02:49:38;2.90;;;2.47;;
12774;SDS011;6451;42.630;23.382;2023-05-03T02:52:05;3.10;;;2.27;;
12774;SDS011;6451;42.630;23.382;2023-05-03T02:54:34;5.63;;;2.40;;
12774;SDS011;6451;42.630;23.382;2023-05-03T02:57:01;4.10;;;2.47;;
12774;SDS011;6451;42.630;23.382;2023-05-03T02:59:30;4.60;;;2.60;;
12774;SDS011;6451;42.630;23.382;2023-05-03T03:01:57;4.00;;;2.33;;
12774;SDS011;6451;42.630;23.382;2023-05-03T03:04:26;3.17;;;2.37;;
12774;SDS011;6451;42.630;23.382;2023-05-03T03:06:53;6.43;;;2.40;;
12774;SDS011;6451;42.630;23.382;2023-05-03T03:09:20;6.20;;;2.40;;
12774;SDS011;6451;42.630;23.382;2023-05-03T03:11:49;4.43;;;2.40;;
12774;SDS011;6451;42.630;23.382;2023-05-03T03:14:16;4.90;;;2.27;;
12774;SDS011;6451;42.630;23.382;2023-05-03T03:16:44;3.50;;;2.60;;
12774;SDS011;6451;42.630;23.382;2023-05-03T03:19:11;4.33;;;2.43;;
12774;SDS011;6451;42.630;23.382;2023-05-03T03:21:39;3.57;;;2.70;;
12774;SDS011;6451;42.630;23.382;2023-05-03T03:24:06;4.00;;;2.23;;
12774;SDS011;6451;42.630;23.382;2023-05-03T03:26:34;3.30;;;2.63;;
12774;SDS011;6451;42.630;23.382;2023-05-03T03:29:01;4.73;;;2.60;;
12774;SDS011;6451;42.630;23.382;2023-05-03T03:31:33;3.53;;;2.27;;
12774;SDS011;6451;42.630;23.382;2023-05-03T03:34:00;3.13;;;2.20;;
12774;SDS011;6451;42.630;23.382;2023-05-03T03:36:34;5.40;;;2.50;;
12774;SDS011;6451;42.630;23.382;2023-05-03T03:39:03;3.53;;;2.50;;
12774;SDS011;6451;42.630;23.382;2023-05-03T03:41:30;5.20;;;2.30;;
12774;SDS011;6451;42.630;23.382;2023-05-03T03:43:57;4.30;;;2.50;;
12774;SDS011;6451;42.630;23.382;2023-05-03T03:46:24;6.57;;;2.70;;
12774;SDS011;6451;42.630;23.382;2023-05-03T03:48:51;2.93;;;2.03;;
12774;SDS011;6451;42.630;23.382;2023-05-03T03:51:18;3.53;;;2.53;;
12774;SDS011;6451;42.630;23.382;2023-05-03T03:53:45;3.67;;;2.50;;
12774;SDS011;6451;42.630;23.382;2023-05-03T03:56:15;3.33;;;2.40;;
12774;SDS011;6451;42.630;23.382;2023-05-03T03:58:42;5.47;;;2.37;;
12774;SDS011;6451;42.630;23.382;2023-05-03T04:01:09;3.33;;;2.50;;
12774;SDS011;6451;42.630;23.382;2023-05-03T04:03:37;3.57;;;2.70;;
12774;SDS011;6451;42.630;23.382;2023-05-03T04:06:04;4.93;;;2.57;;
12774;SDS011;6451;42.630;23.382;2023-05-03T04:08:31;3.70;;;2.83;;
12774;SDS011;6451;42.630;23.382;2023-05-03T04:11:00;5.60;;;2.70;;
12774;SDS011;6451;42.630;23.382;2023-05-03T04:13:29;5.10;;;2.37;;
12774;SDS011;6451;42.630;23.382;2023-05-03T04:15:56;2.60;;;2.40;;
12774;SDS011;6451;42.630;23.382;2023-05-03T04:18:23;4.83;;;2.80;;
12774;SDS011;6451;42.630;23.382;2023-05-03T04:20:50;3.37;;;2.47;;
12774;SDS011;6451;42.630;23.382;2023-05-03T04:23:18;3.63;;;2.70;;
12774;SDS011;6451;42.630;23.382;2023-05-03T04:25:46;4.23;;;2.77;;
12774;SDS011;6451;42.630;23.382;2023-05-03T04:28:13;5.67;;;2.67;;
12774;SDS011;6451;42.630;23.382;2023-05-03T04:30:41;4.40;;;2.53;;
12774;SDS011;6451;42.630;23.382;2023-05-03T04:33:11;2.80;;;2.50;;
12774;SDS011;6451;42.630;23.382;2023-05-03T04:35:39;7.60;;;2.73;;
12774;SDS011;6451;42.630;23.382;2023-05-03T04:38:06;5.23;;;2.70;;
12774;SDS011;6451;42.630;23.382;2023-05-03T04:40:33;5.23;;;2.80;;
12774;SDS011;6451;42.630;23.382;2023-05-03T04:43:00;4.07;;;2.80;;
12774;SDS011;6451;42.630;23.382;2023-05-03T04:45:26;3.07;;;2.73;;
12774;SDS011;6451;42.630;23.382;2023-05-03T04:47:55;3.27;;;2.77;;
12774;SDS011;6451;42.630;23.382;2023-05-03T04:50:22;5.33;;;2.90;;
12774;SDS011;6451;42.630;23.382;2023-05-03T04:52:50;5.47;;;3.00;;
12774;SDS011;6451;42.630;23.382;2023-05-03T04:55:17;4.67;;;3.20;;
12774;SDS011;6451;42.630;23.382;2023-05-03T04:57:45;4.50;;;3.30;;
12774;SDS011;6451;42.630;23.382;2023-05-03T05:00:12;3.60;;;2.80;;
12774;SDS011;6451;42.630;23.382;2023-05-03T05:02:40;3.70;;;3.10;;
12774;SDS011;6451;42.630;23.382;2023-05-03T05:05:09;5.77;;;3.37;;
12774;SDS011;6451;42.630;23.382;2023-05-03T05:07:36;5.30;;;2.93;;
12774;SDS011;6451;42.630;23.382;2023-05-03T05:10:04;5.77;;;3.60;;
12774;SDS011;6451;42.630;23.382;2023-05-03T05:12:32;4.60;;;3.60;;
12774;SDS011;6451;42.630;23.382;2023-05-03T05:14:59;7.40;;;3.80;;
12774;SDS011;6451;42.630;23.382;2023-05-03T05:17:26;5.77;;;3.87;;
12774;SDS011;6451;42.630;23.382;2023-05-03T05:19:54;4.90;;;3.80;;
12774;SDS011;6451;42.630;23.382;2023-05-03T05:22:23;7.27;;;4.80;;
12774;SDS011;6451;42.630;23.382;2023-05-03T05:24:50;5.53;;;3.57;;
12774;SDS011;6451;42.630;23.382;2023-05-03T05:27:17;6.07;;;3.20;;
12774;SDS011;6451;42.630;23.382;2023-05-03T05:29:45;5.50;;;3.10;;
12774;SDS011;6451;42.630;23.382;2023-05-03T05:32:12;5.10;;;3.13;;
12774;SDS011;6451;42.630;23.382;2023-05-03T05:34:39;4.40;;;2.87;;
12774;SDS011;6451;42.630;23.382;2023-05-03T05:37:06;3.47;;;3.00;;
12774;SDS011;6451;42.630;23.382;2023-05-03T05:39:36;4.00;;;3.10;;
12774;SDS011;6451;42.630;23.382;2023-05-03T05:42:02;4.90;;;2.87;;
12774;SDS011;6451;42.630;23.382;2023-05-03T05:44:29;3.37;;;2.83;;
12774;SDS011;6451;42.630;23.382;2023-05-03T05:46:56;3.77;;;3.00;;
12774;SDS011;6451;42.630;23.382;2023-05-03T05:49:23;4.80;;;3.20;;
12774;SDS011;6451;42.630;23.382;2023-05-03T05:51:50;6.13;;;3.20;;
12774;SDS011;6451;42.630;23.382;2023-05-03T05:54:17;5.67;;;2.80;;
12774;SDS011;6451;42.630;23.382;2023-05-03T05:56:46;4.57;;;3.13;;
12774;SDS011;6451;42.630;23.382;2023-05-03T05:59:13;5.50;;;3.10;;
12774;SDS011;6451;42.630;23.382;2023-05-03T06:01:41;4.23;;;3.30;;
12774;SDS011;6451;42.630;23.382;2023-05-03T06:04:10;3.83;;;3.30;;
12774;SDS011;6451;42.630;23.382;2023-05-03T06:06:37;4.33;;;2.80;;
12774;SDS011;6451;42.630;23.382;2023-05-03T06:09:04;3.83;;;2.80;;
12774;SDS011;6451;42.630;23.382;2023-05-03T06:11:32;6.53;;;3.50;;
12774;SDS011;6451;42.630;23.382;2023-05-03T06:14:01;4.90;;;3.20;;
12774;SDS011;6451;42.630;23.382;2023-05-03T06:16:29;3.57;;;3.07;;
12774;SDS011;6451;42.630;23.382;2023-05-03T06:18:55;3.27;;;2.97;;
12774;SDS011;6451;42.630;23.382;2023-05-03T06:21:22;5.93;;;2.90;;
12774;SDS011;6451;42.630;23.382;2023-05-03T06:23:50;4.00;;;2.90;;
12774;SDS011;6451;42.630;23.382;2023-05-03T06:26:17;6.47;;;3.50;;
12774;SDS011;6451;42.630;23.382;2023-05-03T06:28:44;5.93;;;3.20;;
12774;SDS011;6451;42.630;23.382;2023-05-03T06:31:12;5.33;;;2.97;;
12774;SDS011;6451;42.630;23.382;2023-05-03T06:33:39;6.03;;;3.20;;
12774;SDS011;6451;42.630;23.382;2023-05-03T06:36:06;4.27;;;2.93;;
12774;SDS011;6451;42.630;23.382;2023-05-03T06:38:33;4.53;;;3.00;;
12774;SDS011;6451;42.630;23.382;2023-05-03T06:41:00;3.57;;;2.90;;
12774;SDS011;6451;42.630;23.382;2023-05-03T06:43:27;4.50;;;3.10;;
12774;SDS011;6451;42.630;23.382;2023-05-03T06:45:54;4.27;;;2.90;;
12774;SDS011;6451;42.630;23.382;2023-05-03T06:48:24;6.73;;;3.23;;
12774;SDS011;6451;42.630;23.382;2023-05-03T06:50:51;4.47;;;2.90;;
12774;SDS011;6451;42.630;23.382;2023-05-03T06:53:19;7.37;;;2.87;;
12774;SDS011;6451;42.630;23.382;2023-05-03T06:55:46;4.93;;;3.00;;
12774;SDS011;6451;42.630;23.382;2023-05-03T06:58:13;6.83;;;3.17;;
12774;SDS011;6451;42.630;23.382;2023-05-03T07:00:41;5.80;;;3.33;;
12774;SDS011;6451;42.630;23.382;2023-05-03T07:03:07;5.00;;;3.23;;
12774;SDS011;6451;42.630;23.382;2023-05-03T07:05:38;3.30;;;3.00;;
12774;SDS011;6451;42.630;23.382;2023-05-03T07:08:05;4.10;;;3.10;;
12774;SDS011;6451;42.630;23.382;2023-05-03T07:10:33;4.93;;;3.50;;
12774;SDS011;6451;42.630;23.382;2023-05-03T07:13:00;4.43;;;3.30;;
12774;SDS011;6451;42.630;23.382;2023-05-03T07:15:27;4.23;;;3.10;;
12774;SDS011;6451;42.630;23.382;2023-05-03T07:17:54;3.63;;;3.00;;
12774;SDS011;6451;42.630;23.382;2023-05-03T07:20:21;5.13;;;3.20;;
12774;SDS011;6451;42.630;23.382;2023-05-03T07:22:49;3.90;;;2.87;;
12774;SDS011;6451;42.630;23.382;2023-05-03T07:25:16;4.17;;;2.77;;
12774;SDS011;6451;42.630;23.382;2023-05-03T07:27:43;4.40;;;2.80;;
12774;SDS011;6451;42.630;23.382;2023-05-03T07:30:11;3.53;;;2.93;;
12774;SDS011;6451;42.630;23.382;2023-05-03T07:32:38;3.97;;;3.27;;
12774;SDS011;6451;42.630;23.382;2023-05-03T07:35:05;7.17;;;4.67;;
12774;SDS011;6451;42.630;23.382;2023-05-03T07:37:33;5.63;;;3.10;;
12774;SDS011;6451;42.630;23.382;2023-05-03T07:40:02;7.00;;;3.50;;
12774;SDS011;6451;42.630;23.382;2023-05-03T07:42:31;7.67;;;5.10;;
12774;SDS011;6451;42.630;23.382;2023-05-03T07:44:58;3.87;;;3.30;;
12774;SDS011;6451;42.630;23.382;2023-05-03T07:47:25;10.03;;;5.70;;
12774;SDS011;6451;42.630;23.382;2023-05-03T07:49:53;5.47;;;3.30;;
12774;SDS011;6451;42.630;23.382;2023-05-03T07:52:20;4.60;;;3.23;;
12774;SDS011;6451;42.630;23.382;2023-05-03T07:54:48;5.50;;;3.83;;
12774;SDS011;6451;42.630;23.382;2023-05-03T07:57:17;4.17;;;3.60;;
12774;SDS011;6451;42.630;23.382;2023-05-03T07:59:43;4.87;;;3.63;;
12774;SDS011;6451;42.630;23.382;2023-05-03T08:02:10;5.63;;;3.47;;
12774;SDS011;6451;42.630;23.382;2023-05-03T08:04:37;5.13;;;3.60;;
12774;SDS011;6451;42.630;23.382;2023-05-03T08:07:05;10.00;;;3.50;;
12774;SDS011;6451;42.630;23.382;2023-05-03T08:09:33;4.37;;;3.40;;
12774;SDS011;6451;42.630;23.382;2023-05-03T08:12:00;6.03;;;3.83;;
12774;SDS011;6451;42.630;23.382;2023-05-03T08:14:29;9.97;;;8.30;;
12774;SDS011;6451;42.630;23.382;2023-05-03T08:16:57;17.67;;;15.27;;
12774;SDS011;6451;42.630;23.382;2023-05-03T08:19:24;16.37;;;13.40;;
12774;SDS011;6451;42.630;23.382;2023-05-03T08:21:52;10.10;;;7.20;;
12774;SDS011;6451;42.630;23.382;2023-05-03T08:24:20;9.23;;;4.57;;
12774;SDS011;6451;42.630;23.382;2023-05-03T08:26:46;22.60;;;14.47;;
12774;SDS011;6451;42.630;23.382;2023-05-03T08:29:14;6.77;;;5.27;;
12774;SDS011;6451;42.630;23.382;2023-05-03T08:31:43;7.20;;;5.60;;
12774;SDS011;6451;42.630;23.382;2023-05-03T08:34:10;11.77;;;7.67;;
12774;SDS011;6451;42.630;23.382;2023-05-03T08:36:37;12.60;;;7.97;;
12774;SDS011;6451;42.630;23.382;2023-05-03T08:39:04;6.00;;;4.63;;
12774;SDS011;6451;42.630;23.382;2023-05-03T08:41:32;4.67;;;3.60;;
12774;SDS011;6451;42.630;23.382;2023-05-03T08:43:59;3.90;;;3.33;;
12774;SDS011;6451;42.630;23.382;2023-05-03T08:46:28;7.33;;;3.30;;
12774;SDS011;6451;42.630;23.382;2023-05-03T08:48:57;6.33;;;3.30;;
12774;SDS011;6451;42.630;23.382;2023-05-03T08:51:25;3.90;;;3.50;;
12774;SDS011;6451;42.630;23.382;2023-05-03T08:53:52;4.43;;;4.03;;
12774;SDS011;6451;42.630;23.382;2023-05-03T08:56:22;3.57;;;3.27;;
12774;SDS011;6451;42.630;23.382;2023-05-03T08:58:54;4.17;;;3.47;;
12774;SDS011;6451;42.630;23.382;2023-05-03T09:01:21;4.10;;;3.40;;
12774;SDS011;6451;42.630;23.382;2023-05-03T09:03:48;4.43;;;3.70;;
12774;SDS011;6451;42.630;23.382;2023-05-03T09:06:21;4.33;;;3.40;;
12774;SDS011;6451;42.630;23.382;2023-05-03T09:08:50;4.33;;;3.40;;
12774;SDS011;6451;42.630;23.382;2023-05-03T09:11:20;3.80;;;3.40;;
12774;SDS011;6451;42.630;23.382;2023-05-03T09:13:50;3.80;;;3.40;;
12774;SDS011;6451;42.630;23.382;2023-05-03T09:16:23;6.78;;;3.47;;
12774;SDS011;6451;42.630;23.382;2023-05-03T09:18:57;5.85;;;3.78;;
12774;SDS011;6451;42.630;23.382;2023-05-03T09:21:26;5.43;;;3.47;;
12774;SDS011;6451;42.630;23.382;2023-05-03T09:23:56;6.43;;;4.00;;
12774;SDS011;6451;42.630;23.382;2023-05-03T09:26:28;3.60;;;3.13;;
12774;SDS011;6451;42.630;23.382;2023-05-03T09:28:57;3.53;;;3.05;;
12774;SDS011;6451;42.630;23.382;2023-05-03T09:31:26;4.53;;;3.05;;
12774;SDS011;6451;42.630;23.382;2023-05-03T09:33:54;2.85;;;2.65;;
12774;SDS011;6451;42.630;23.382;2023-05-03T09:36:21;3.97;;;2.88;;
12774;SDS011;6451;42.630;23.382;2023-05-03T09:38:50;3.30;;;3.00;;
12774;SDS011;6451;42.630;23.382;2023-05-03T09:41:25;3.25;;;2.95;;
12774;SDS011;6451;42.630;23.382;2023-05-03T09:43:53;3.35;;;2.85;;
12774;SDS011;6451;42.630;23.382;2023-05-03T09:46:21;3.83;;;3.50;;
12774;SDS011;6451;42.630;23.382;2023-05-03T09:48:50;3.47;;;3.17;;
12774;SDS011;6451;42.630;23.382;2023-05-03T09:51:19;4.20;;;3.30;;
12774;SDS011;6451;42.630;23.382;2023-05-03T09:53:48;4.88;;;3.03;;
12774;SDS011;6451;42.630;23.382;2023-05-03T09:56:17;4.80;;;3.30;;
12774;SDS011;6451;42.630;23.382;2023-05-03T09:58:50;5.28;;;3.22;;
12774;SDS011;6451;42.630;23.382;2023-05-03T10:01:18;5.45;;;3.30;;
12774;SDS011;6451;42.630;23.382;2023-05-03T10:03:47;4.03;;;3.30;;
12774;SDS011;6451;42.630;23.382;2023-05-03T10:06:57;4.38;;;3.50;;
12774;SDS011;6451;42.630;23.382;2023-05-03T10:09:27;6.53;;;3.40;;
12774;SDS011;6451;42.630;23.382;2023-05-03T10:11:59;5.78;;;3.17;;
12774;SDS011;6451;42.630;23.382;2023-05-03T10:14:30;4.63;;;3.03;;
12774;SDS011;6451;42.630;23.382;2023-05-03T10:16:58;5.10;;;3.17;;
12774;SDS011;6451;42.630;23.382;2023-05-03T10:19:27;3.70;;;3.15;;
12774;SDS011;6451;42.630;23.382;2023-05-03T10:22:02;4.18;;;3.45;;
12774;SDS011;6451;42.630;23.382;2023-05-03T10:24:31;3.53;;;3.10;;
12774;SDS011;6451;42.630;23.382;2023-05-03T10:26:59;3.45;;;3.10;;
12774;SDS011;6451;42.630;23.382;2023-05-03T10:32:32;3.35;;;2.88;;
12774;SDS011;6451;42.630;23.382;2023-05-03T10:35:02;4.50;;;3.00;;
12774;SDS011;6451;42.630;23.382;2023-05-03T10:37:33;5.00;;;3.05;;
12774;SDS011;6451;42.630;23.382;2023-05-03T10:40:05;5.10;;;3.20;;
12774;SDS011;6451;42.630;23.382;2023-05-03T10:42:35;4.32;;;3.20;;
12774;SDS011;6451;42.630;23.382;2023-05-03T10:45:03;4.82;;;3.38;;
12774;SDS011;6451;42.630;23.382;2023-05-03T10:47:33;5.15;;;2.90;;
12774;SDS011;6451;42.630;23.382;2023-05-03T10:52:54;4.32;;;2.78;;
12774;SDS011;6451;42.630;23.382;2023-05-03T10:55:21;4.00;;;3.17;;
12774;SDS011;6451;42.630;23.382;2023-05-03T10:57:52;3.53;;;3.13;;
12774;SDS011;6451;42.630;23.382;2023-05-03T11:00:23;4.65;;;2.90;;
12774;SDS011;6451;42.630;23.382;2023-05-03T11:03:02;4.88;;;3.38;;
12774;SDS011;6451;42.630;23.382;2023-05-03T11:05:36;3.63;;;2.53;;
12774;SDS011;6451;42.630;23.382;2023-05-03T11:08:09;3.97;;;2.80;;
12774;SDS011;6451;42.630;23.382;2023-05-03T11:10:37;3.28;;;2.72;;
12774;SDS011;6451;42.630;23.382;2023-05-03T11:13:04;4.60;;;3.03;;
12774;SDS011;6451;42.630;23.382;2023-05-03T11:15:32;3.13;;;2.55;;
12774;SDS011;6451;42.630;23.382;2023-05-03T11:17:59;4.50;;;2.80;;
12774;SDS011;6451;42.630;23.382;2023-05-03T11:20:26;3.55;;;3.10;;
12774;SDS011;6451;42.630;23.382;2023-05-03T11:22:53;3.40;;;3.10;;
12774;SDS011;6451;42.630;23.382;2023-05-03T11:25:22;3.92;;;3.20;;
12774;SDS011;6451;42.630;23.382;2023-05-03T11:27:49;3.42;;;2.88;;
12774;SDS011;6451;42.630;23.382;2023-05-03T11:30:16;4.45;;;2.90;;
12774;SDS011;6451;42.630;23.382;2023-05-03T11:32:43;3.63;;;3.00;;
12774;SDS011;6451;42.630;23.382;2023-05-03T11:35:11;3.25;;;2.95;;
12774;SDS011;6451;42.630;23.382;2023-05-03T11:37:39;5.65;;;2.85;;
12774;SDS011;6451;42.630;23.382;2023-05-03T11:40:13;4.35;;;3.00;;
12774;SDS011;6451;42.630;23.382;2023-05-03T11:42:52;3.20;;;2.90;;
12774;SDS011;6451;42.630;23.382;2023-05-03T11:45:21;4.05;;;2.67;;
12774;SDS011;6451;42.630;23.382;2023-05-03T11:47:50;5.07;;;2.65;;
12774;SDS011;6451;42.630;23.382;2023-05-03T11:50:18;3.28;;;2.70;;
12774;SDS011;6451;42.630;23.382;2023-05-03T11:52:52;3.40;;;2.90;;
12774;SDS011;6451;42.630;23.382;2023-05-03T11:55:20;3.13;;;2.70;;
12774;SDS011;6451;42.630;23.382;2023-05-03T11:57:49;5.03;;;2.70;;
12774;SDS011;6451;42.630;23.382;2023-05-03T12:00:18;4.70;;;2.88;;
12774;SDS011;6451;42.630;23.382;2023-05-03T12:02:46;3.53;;;3.15;;
12774;SDS011;6451;42.630;23.382;2023-05-03T12:05:14;5.70;;;2.95;;
12774;SDS011;6451;42.630;23.382;2023-05-03T12:07:41;3.45;;;2.85;;
12774;SDS011;6451;42.630;23.382;2023-05-03T12:10:12;3.67;;;2.85;;
12774;SDS011;6451;42.630;23.382;2023-05-03T12:12:49;6.18;;;3.10;;
12774;SDS011;6451;42.630;23.382;2023-05-03T12:15:26;5.40;;;2.88;;
12774;SDS011;6451;42.630;23.382;2023-05-03T12:17:55;3.53;;;2.90;;
12774;SDS011;6451;42.630;23.382;2023-05-03T12:20:23;3.50;;;3.03;;
12774;SDS011;6451;42.630;23.382;2023-05-03T12:22:53;3.60;;;3.10;;
12774;SDS011;6451;42.630;23.382;2023-05-03T12:25:21;4.45;;;3.38;;
12774;SDS011;6451;42.630;23.382;2023-05-03T12:27:50;5.47;;;3.60;;
12774;SDS011;6451;42.630;23.382;2023-05-03T12:30:18;5.32;;;3.97;;
12774;SDS011;6451;42.630;23.382;2023-05-03T12:32:47;5.95;;;4.22;;
12774;SDS011;6451;42.630;23.382;2023-05-03T12:35:14;7.40;;;3.40;;
12774;SDS011;6451;42.630;23.382;2023-05-03T12:37:42;5.20;;;3.28;;
12774;SDS011;6451;42.630;23.382;2023-05-03T12:40:10;6.80;;;3.35;;
12774;SDS011;6451;42.630;23.382;2023-05-03T12:42:39;6.90;;;3.72;;
12774;SDS011;6451;42.630;23.382;2023-05-03T12:45:06;5.00;;;3.50;;
12774;SDS011;6451;42.630;23.382;2023-05-03T12:47:34;6.18;;;3.28;;
12774;SDS011;6451;42.630;23.382;2023-05-03T12:50:03;4.30;;;3.40;;
12774;SDS011;6451;42.630;23.382;2023-05-03T12:52:31;5.72;;;3.75;;
12774;SDS011;6451;42.630;23.382;2023-05-03T12:54:59;4.88;;;3.95;;
12774;SDS011;6451;42.630;23.382;2023-05-03T12:57:26;6.35;;;3.90;;
12774;SDS011;6451;42.630;23.382;2023-05-03T12:59:55;6.40;;;4.30;;
12774;SDS011;6451;42.630;23.382;2023-05-03T13:02:23;4.72;;;4.00;;
12774;SDS011;6451;42.630;23.382;2023-05-03T13:04:50;8.18;;;4.28;;
12774;SDS011;6451;42.630;23.382;2023-05-03T13:07:21;4.57;;;4.10;;
12774;SDS011;6451;42.630;23.382;2023-05-03T13:09:49;4.60;;;4.20;;
12774;SDS011;6451;42.630;23.382;2023-05-03T13:12:17;6.03;;;4.33;;
12774;SDS011;6451;42.630;23.382;2023-05-03T13:14:44;7.00;;;4.40;;
12774;SDS011;6451;42.630;23.382;2023-05-03T13:17:12;7.03;;;4.60;;
12774;SDS011;6451;42.630;23.382;2023-05-03T13:19:39;6.37;;;4.33;;
12774;SDS011;6451;42.630;23.382;2023-05-03T13:22:08;5.60;;;4.57;;
12774;SDS011;6451;42.630;23.382;2023-05-03T13:24:37;5.40;;;4.90;;
12774;SDS011;6451;42.630;23.382;2023-05-03T13:27:04;6.27;;;5.67;;
12774;SDS011;6451;42.630;23.382;2023-05-03T13:29:31;6.03;;;5.00;;
12774;SDS011;6451;42.630;23.382;2023-05-03T13:31:58;6.73;;;4.87;;
12774;SDS011;6451;42.630;23.382;2023-05-03T13:34:25;5.40;;;4.90;;
12774;SDS011;6451;42.630;23.382;2023-05-03T13:36:53;7.03;;;5.53;;
12774;SDS011;6451;42.630;23.382;2023-05-03T13:39:20;8.97;;;6.30;;
12774;SDS011;6451;42.630;23.382;2023-05-03T13:41:49;8.87;;;5.80;;
12774;SDS011;6451;42.630;23.382;2023-05-03T13:44:16;8.93;;;6.57;;
12774;SDS011;6451;42.630;23.382;2023-05-03T13:46:43;7.03;;;6.30;;
12774;SDS011;6451;42.630;23.382;2023-05-03T13:49:10;9.43;;;6.97;;
12774;SDS011;6451;42.630;23.382;2023-05-03T13:51:37;7.63;;;6.87;;
12774;SDS011;6451;42.630;23.382;2023-05-03T13:54:05;7.67;;;6.93;;
12774;SDS011;6451;42.630;23.382;2023-05-03T13:56:33;10.30;;;7.13;;
12774;SDS011;6451;42.630;23.382;2023-05-03T13:59:02;8.40;;;6.97;;
12774;SDS011;6451;42.630;23.382;2023-05-03T14:01:29;8.77;;;7.43;;
12774;SDS011;6451;42.630;23.382;2023-05-03T14:03:56;8.20;;;7.17;;
12774;SDS011;6451;42.630;23.382;2023-05-03T14:06:24;10.33;;;8.20;;
12774;SDS011;6451;42.630;23.382;2023-05-03T14:08:51;9.03;;;7.37;;
12774;SDS011;6451;42.630;23.382;2023-05-03T14:11:20;10.83;;;7.40;;
12774;SDS011;6451;42.630;23.382;2023-05-03T14:13:49;12.97;;;8.07;;
12774;SDS011;6451;42.630;23.382;2023-05-03T14:18:54;8.37;;;7.47;;
12774;SDS011;6451;42.630;23.382;2023-05-03T14:21:21;8.47;;;7.63;;
12774;SDS011;6451;42.630;23.382;2023-05-03T14:23:49;7.90;;;7.20;;
12774;SDS011;6451;42.630;23.382;2023-05-03T14:26:16;9.77;;;7.73;;
12774;SDS011;6451;42.630;23.382;2023-05-03T14:28:45;9.50;;;7.73;;
12774;SDS011;6451;42.630;23.382;2023-05-03T14:31:15;8.30;;;6.67;;
12774;SDS011;6451;42.630;23.382;2023-05-03T14:33:41;7.87;;;7.00;;
12774;SDS011;6451;42.630;23.382;2023-05-03T14:36:10;9.23;;;7.23;;
12774;SDS011;6451;42.630;23.382;2023-05-03T14:38:37;8.40;;;7.60;;
12774;SDS011;6451;42.630;23.382;2023-05-03T14:41:04;9.37;;;8.37;;
12774;SDS011;6451;42.630;23.382;2023-05-03T14:43:33;11.70;;;9.30;;
12774;SDS011;6451;42.630;23.382;2023-05-03T14:46:00;10.73;;;9.63;;
12774;SDS011;6451;42.630;23.382;2023-05-03T14:48:27;13.37;;;9.40;;
12774;SDS011;6451;42.630;23.382;2023-05-03T14:50:54;12.17;;;9.63;;
12774;SDS011;6451;42.630;23.382;2023-05-03T14:53:23;10.90;;;9.30;;
12774;SDS011;6451;42.630;23.382;2023-05-03T14:55:50;10.20;;;9.20;;
12774;SDS011;6451;42.630;23.382;2023-05-03T14:58:18;10.17;;;9.17;;
12774;SDS011;6451;42.630;23.382;2023-05-03T15:00:44;10.60;;;9.50;;
12774;SDS011;6451;42.630;23.382;2023-05-03T15:03:11;9.17;;;8.37;;